This is the latest recevied weather packets stored in our database for station/object PA3CPS. If no packets are shown the sender has not sent any weather packets the latest 10 day(s).
| Time | Temp. | Humidity | Pressure | Rain* | Wind** | Luminosity | Snow |
|---|---|---|---|---|---|---|---|
| 1777724834 | 23.33° C | 55% | 1016.4 hPa | 0 mm | - | 343 W/m² | - |
| 1777724533 | 23.33° C | 54% | 1016.3 hPa | 0 mm | - | 287 W/m² | - |
| 1777724232 | 23.89° C | 53% | 1016.5 hPa | 0 mm | - | 281 W/m² | - |
| 1777723929 | 23.33° C | 54% | 1016.6 hPa | 0 mm | - | 431 W/m² | - |
| 1777723627 | 23.33° C | 55% | 1016.6 hPa | 0 mm | - | 413 W/m² | - |
| 1777723327 | 23.89° C | 53% | 1016.6 hPa | 0 mm | - | 332 W/m² | - |
| 1777723025 | 23.89° C | 52% | 1016.7 hPa | 0 mm | - | 812 W/m² | - |
| 1777722725 | 23.89° C | 52% | 1016.7 hPa | 0 mm | - | 429 W/m² | - |
| 1777722427 | 24.44° C | 50% | 1016.8 hPa | 0 mm | - | 677 W/m² | - |
| 1777722124 | 23.89° C | 53% | 1016.8 hPa | 0 mm | - | 1005 W/m² | - |
| 1777721825 | 23.89° C | 51% | 1016.8 hPa | 0 mm | - | 582 W/m² | - |
| 1777721524 | 23.89° C | 53% | 1017 hPa | 0 mm | - | 912 W/m² | - |
| 1777721230 | 24.44° C | 49% | 1016.9 hPa | 0 mm | - | 868 W/m² | - |
| 1777720925 | 23.89° C | 51% | 1016.9 hPa | 0 mm | - | 737 W/m² | - |
| 1777720622 | 23.89° C | 51% | 1017 hPa | 0 mm | - | 802 W/m² | - |
| 1777720322 | 23.33° C | 53% | 1016.9 hPa | 0 mm | - | 786 W/m² | - |
| 1777720019 | 23.89° C | 51% | 1017 hPa | 0 mm | - | 773 W/m² | - |
| 1777719731 | 23.89° C | 50% | 1016.8 hPa | 0 mm | - | 654 W/m² | - |
| 1777719417 | 23.33° C | 52% | 1016.9 hPa | 0 mm | - | 940 W/m² | - |
| 1777719114 | 23.33° C | 48% | 1017 hPa | 0 mm | - | 752 W/m² | - |
| 1777718813 | 23.33° C | 47% | 1017 hPa | 0 mm | - | 626 W/m² | - |
| 1777718510 | 22.78° C | 48% | 1016.9 hPa | 0 mm | - | 844 W/m² | - |
| 1777718209 | 22.78° C | 47% | 1017 hPa | 0 mm | - | 756 W/m² | - |
| 1777717908 | 22.22° C | 46% | 1017 hPa | 0 mm | - | 761 W/m² | - |
| 1777717607 | 22.22° C | 46% | 1017 hPa | 0 mm | - | 724 W/m² | - |
* Rain latest hour (hover to see other rain measurements)
** Current wind speed in m/s (hover to see current wind gust speed)